createdAt,value
2022-09-09T00:00:01.245Z,6
2022-09-09T00:05:08.773Z,6
2022-09-09T00:10:01.351Z,6
2022-09-09T00:15:01.158Z,6
2022-09-09T00:20:04.418Z,6
2022-09-09T00:25:01.077Z,6
2022-09-09T00:30:12.521Z,6
2022-09-09T00:35:01.376Z,6
2022-09-09T00:40:06.087Z,6
2022-09-09T00:45:01.089Z,6
2022-09-09T00:50:01.401Z,6
2022-09-09T00:55:01.364Z,6
2022-09-09T01:00:16.563Z,6
2022-09-09T01:05:01.184Z,6
2022-09-09T01:10:05.768Z,6
2022-09-09T01:15:04.310Z,6
2022-09-09T01:20:04.111Z,6
2022-09-09T01:25:11.810Z,7
2022-09-09T01:30:05.081Z,7
2022-09-09T01:35:02.441Z,7
2022-09-09T01:40:02.096Z,7
2022-09-09T01:45:01.368Z,7
2022-09-09T01:50:02.318Z,8
2022-09-09T01:55:01.206Z,8
2022-09-09T02:00:01.108Z,8
2022-09-09T02:05:01.244Z,8
2022-09-09T02:10:01.006Z,8
2022-09-09T02:15:01.203Z,9
2022-09-09T02:20:03.704Z,9
2022-09-09T02:25:00.999Z,9
2022-09-09T02:30:01.329Z,10
2022-09-09T02:35:01.199Z,10
2022-09-09T02:40:02.250Z,10
2022-09-09T02:45:01.214Z,10
2022-09-09T02:50:01.199Z,10
2022-09-09T02:55:06.111Z,11
2022-09-09T03:00:01.045Z,11
2022-09-09T03:05:01.477Z,11
2022-09-09T03:10:01.124Z,11
2022-09-09T03:15:02.048Z,11
2022-09-09T03:20:00.986Z,11
2022-09-09T03:25:01.270Z,11
2022-09-09T03:30:01.146Z,11
2022-09-09T03:35:01.180Z,11
2022-09-09T03:40:01.272Z,11
2022-09-09T03:45:01.183Z,11
2022-09-09T03:50:01.187Z,11
2022-09-09T03:55:00.891Z,11
2022-09-09T04:00:01.298Z,11
2022-09-09T04:05:01.382Z,12
2022-09-09T04:10:01.083Z,12
2022-09-09T04:15:01.274Z,12
2022-09-09T04:20:00.955Z,12
2022-09-09T04:25:01.123Z,12
2022-09-09T04:30:01.558Z,11
2022-09-09T04:35:00.984Z,11
2022-09-09T04:40:01.079Z,11
2022-09-09T04:45:01.325Z,11
2022-09-09T04:50:01.409Z,11
2022-09-09T04:55:01.216Z,11
2022-09-09T05:00:01.700Z,11
2022-09-09T05:05:01.087Z,11
2022-09-09T05:10:00.914Z,11
2022-09-09T05:15:00.860Z,11
2022-09-09T05:20:01.670Z,11
2022-09-09T05:25:00.935Z,11
2022-09-09T05:30:01.309Z,11
2022-09-09T05:35:01.144Z,11
2022-09-09T05:40:01.849Z,11
2022-09-09T05:45:01.429Z,11
2022-09-09T05:50:00.888Z,11
2022-09-09T05:55:01.078Z,11
2022-09-09T06:00:01.743Z,10
2022-09-09T06:05:01.346Z,10
2022-09-09T06:10:00.847Z,10
2022-09-09T06:15:01.001Z,10
2022-09-09T06:20:01.427Z,10
2022-09-09T06:25:00.812Z,10
2022-09-09T06:30:01.205Z,10
2022-09-09T06:35:01.067Z,10
2022-09-09T06:40:01.039Z,10
2022-09-09T06:45:01.004Z,10
2022-09-09T06:50:00.826Z,10
2022-09-09T06:55:00.893Z,10
2022-09-09T07:00:01.067Z,10
2022-09-09T07:05:01.011Z,9
2022-09-09T07:10:00.897Z,10
2022-09-09T07:15:01.094Z,9
2022-09-09T07:20:00.862Z,10
2022-09-09T07:25:01.091Z,10
2022-09-09T07:30:00.781Z,10
2022-09-09T07:35:01.263Z,9
2022-09-09T07:40:00.864Z,10
2022-09-09T07:45:00.858Z,10
2022-09-09T07:50:01.323Z,10
2022-09-09T07:55:01.500Z,10
2022-09-09T08:00:01.396Z,10
2022-09-09T08:05:00.996Z,10
2022-09-09T08:10:01.022Z,10
2022-09-09T08:15:01.229Z,10
2022-09-09T08:20:01.044Z,10
2022-09-09T08:25:00.801Z,10
2022-09-09T08:30:01.133Z,10
2022-09-09T08:35:01.493Z,10
2022-09-09T08:40:00.877Z,10
2022-09-09T08:45:12.231Z,10
2022-09-09T08:50:00.682Z,10
2022-09-09T08:55:03.569Z,10
2022-09-09T09:00:01.329Z,10
2022-09-09T09:05:00.870Z,9
2022-09-09T09:10:09.169Z,9
2022-09-09T09:15:01.404Z,10
2022-09-09T09:20:00.943Z,10
2022-09-09T09:25:00.863Z,10
2022-09-09T09:30:22.886Z,10
2022-09-09T09:35:01.353Z,10
2022-09-09T09:45:00.935Z,9
2022-09-09T09:50:01.203Z,10
2022-09-09T09:55:05.413Z,10
2022-09-09T10:00:01.119Z,10
2022-09-09T10:05:02.487Z,10
2022-09-09T10:10:01.529Z,9
2022-09-09T10:15:00.762Z,10
2022-09-09T10:20:12.372Z,10
2022-09-09T10:25:00.741Z,10
2022-09-09T10:30:01.010Z,10
2022-09-09T10:35:00.941Z,10
2022-09-09T10:40:01.131Z,10
2022-09-09T10:45:00.655Z,10
2022-09-09T10:50:07.806Z,10
2022-09-09T10:55:00.834Z,10
2022-09-09T11:00:04.278Z,10
2022-09-09T11:05:00.631Z,10
2022-09-09T11:10:02.367Z,10
2022-09-09T11:15:04.334Z,10
2022-09-09T11:20:00.758Z,10
2022-09-09T11:25:00.742Z,10
2022-09-09T11:30:00.873Z,10
2022-09-09T11:35:00.913Z,10
2022-09-09T11:40:00.844Z,9
2022-09-09T11:45:00.845Z,9
2022-09-09T11:50:00.761Z,9
2022-09-09T11:55:00.746Z,10
2022-09-09T12:00:00.883Z,10
2022-09-09T12:05:00.900Z,10
2022-09-09T12:10:00.829Z,10
2022-09-09T12:15:00.724Z,10
2022-09-09T12:20:00.878Z,10
2022-09-09T12:25:00.892Z,10
2022-09-09T12:30:00.793Z,10
2022-09-09T12:35:03.062Z,10
2022-09-09T12:40:02.449Z,11
2022-09-09T12:45:01.541Z,11
2022-09-09T12:50:01.049Z,11
2022-09-09T12:55:01.508Z,11
2022-09-09T13:00:00.541Z,11
2022-09-09T13:05:00.732Z,11
2022-09-09T13:10:00.845Z,11
2022-09-09T13:15:00.728Z,11
2022-09-09T13:20:00.987Z,11
2022-09-09T13:25:00.590Z,10
2022-09-09T13:30:01.090Z,11
2022-09-09T13:35:01.261Z,11
2022-09-09T13:40:00.784Z,11
2022-09-09T13:45:01.415Z,11
2022-09-09T13:50:00.831Z,11
2022-09-09T13:55:00.793Z,11
2022-09-09T14:00:05.218Z,11
2022-09-09T14:05:00.670Z,11
2022-09-09T14:10:00.616Z,11
2022-09-09T14:15:00.953Z,11
2022-09-09T14:20:00.727Z,12
2022-09-09T14:25:00.591Z,12
2022-09-09T14:30:00.596Z,12
2022-09-09T14:35:00.946Z,13
2022-09-09T14:40:00.547Z,13
2022-09-09T14:45:00.793Z,13
2022-09-09T14:50:00.581Z,13
2022-09-09T14:55:00.462Z,13
2022-09-09T15:00:00.676Z,12
2022-09-09T15:05:00.749Z,12
2022-09-09T15:10:01.192Z,12
2022-09-09T15:15:00.431Z,11
2022-09-09T15:20:00.481Z,11
2022-09-09T15:25:00.795Z,11
2022-09-09T15:30:00.421Z,11
2022-09-09T15:35:00.635Z,11
2022-09-09T15:40:00.651Z,11
2022-09-09T15:45:00.701Z,11
2022-09-09T15:50:00.563Z,10
2022-09-09T15:55:00.609Z,10
2022-09-09T16:00:01.173Z,10
2022-09-09T16:05:00.566Z,10
2022-09-09T16:10:00.568Z,10
2022-09-09T16:15:00.416Z,10
2022-09-09T16:20:00.710Z,10
2022-09-09T16:25:00.556Z,10
2022-09-09T16:30:00.460Z,10
2022-09-09T16:35:00.553Z,9
2022-09-09T16:40:00.508Z,10
2022-09-09T16:45:00.759Z,10
2022-09-09T16:50:00.562Z,10
2022-09-09T16:55:00.463Z,10
2022-09-09T17:00:01.050Z,11
2022-09-09T17:05:00.447Z,11
2022-09-09T17:10:00.529Z,11
2022-09-09T17:15:00.711Z,12
2022-09-09T17:20:00.997Z,12
2022-09-09T17:25:00.499Z,12
2022-09-09T17:30:00.605Z,12
2022-09-09T17:35:00.732Z,12
2022-09-09T17:40:00.478Z,12
2022-09-09T17:45:00.875Z,11
2022-09-09T17:50:00.469Z,11
2022-09-09T17:55:00.323Z,11
2022-09-09T18:00:00.487Z,11
2022-09-09T18:05:00.597Z,11
2022-09-09T18:10:00.466Z,11
2022-09-09T18:15:03.901Z,11
2022-09-09T18:20:00.905Z,10
2022-09-09T18:25:00.336Z,10
2022-09-09T18:30:00.556Z,10
2022-09-09T18:35:00.585Z,10
2022-09-09T18:40:00.783Z,11
2022-09-09T18:45:00.459Z,11
2022-09-09T18:50:00.651Z,11
2022-09-09T18:55:00.757Z,11
2022-09-09T19:00:00.957Z,11
2022-09-09T19:05:00.479Z,11
2022-09-09T19:10:00.517Z,12
2022-09-09T19:15:00.429Z,12
2022-09-09T19:20:00.792Z,12
2022-09-09T19:25:00.539Z,12
2022-09-09T19:30:00.629Z,12
2022-09-09T19:35:00.367Z,12
2022-09-09T19:40:00.527Z,12
2022-09-09T19:45:00.815Z,12
2022-09-09T19:50:00.800Z,12
2022-09-09T19:55:00.364Z,13
2022-09-09T20:00:00.353Z,13
2022-09-09T20:05:00.375Z,12
2022-09-09T20:10:00.982Z,12
2022-09-09T20:15:00.623Z,12
2022-09-09T20:20:00.337Z,12
2022-09-09T20:25:00.702Z,12
2022-09-09T20:30:00.583Z,12
2022-09-09T20:35:00.685Z,12
2022-09-09T20:40:00.542Z,12
2022-09-09T20:45:00.361Z,11
2022-09-09T20:50:00.545Z,11
2022-09-09T20:55:00.439Z,12
2022-09-09T21:00:00.603Z,12
2022-09-09T21:05:00.460Z,12
2022-09-09T21:10:00.580Z,12
2022-09-09T21:15:00.480Z,12
2022-09-09T21:20:00.273Z,13
2022-09-09T21:25:00.421Z,13
2022-09-09T21:30:00.473Z,14
2022-09-09T21:35:00.355Z,14
2022-09-09T21:40:00.539Z,14
2022-09-09T21:45:00.296Z,14
2022-09-09T21:50:00.560Z,15
2022-09-09T21:55:00.279Z,15
2022-09-09T22:00:00.326Z,16
2022-09-09T22:05:00.358Z,17
2022-09-09T22:10:00.312Z,17
2022-09-09T22:15:00.472Z,18
2022-09-09T22:20:00.299Z,19
2022-09-09T22:25:00.252Z,19
2022-09-09T22:30:00.284Z,20
2022-09-09T22:35:00.388Z,21
2022-09-09T22:40:00.429Z,22
2022-09-09T22:45:00.382Z,22
2022-09-09T22:50:00.129Z,23
2022-09-09T22:55:00.272Z,23
2022-09-09T23:00:00.163Z,24
2022-09-09T23:05:00.229Z,25
2022-09-09T23:10:01.253Z,26
2022-09-09T23:15:00.317Z,26
2022-09-09T23:20:00.269Z,26
2022-09-09T23:25:00.302Z,27
2022-09-09T23:30:00.332Z,27
2022-09-09T23:35:00.280Z,27
2022-09-09T23:40:00.932Z,27
2022-09-09T23:45:00.113Z,27
2022-09-09T23:50:00.083Z,27
2022-09-09T23:55:00.043Z,27
